YPGV/GOV METAR and TAF weather

Enter ICAO airport designator
Station Type Date Time Source
YPGV METAR 2020/10/20 17:00 UTC NOAA

YPGV 201700Z AUTO 24002KT 9999 // NCD 23/21 Q1009


Station Type Date Time Source
YPGV Decoded METAR 2020/10/20 17:00 UTC NOAA

Station name not available
Oct 20, 2020 - 01:00 PM EDT / 2020.10.20 1700 UTC
Wind: from the WSW (240 degrees) at 2 MPH (2 KT):0
Visibility: greater than 7 mile(s):0
Temperature: 73 F (23 C)
Dew Point: 69 F (21 C)
Relative Humidity: 88%
Pressure (altimeter): 29.80 in. Hg (1009 hPa)
ob: YPGV 201700Z AUTO 24002KT 9999 // NCD 23/21 Q1009
cycle: 17

Station Type Date Time Source
YPGV TAF 2020/10/20 14:00 UTC NOAA

TAF YPGV 201319Z 2014/2102 VRB05KT 9999 SCT020
FM202200 02010KT 9999 SCT025

Example: see airport list